Time;durP1;ratioP1;P1;durP2;ratioP2;P2;SDS_P1;SDS_P2;PMS_P1;PMS_P2;Temp;Humidity;BMP_temperature;BMP_pressure;BME280_temperature;BME280_humidity;BME280_pressure;Samples;Min_cycle;Max_cycle;Signal;HPM_P1;HPM_P2
2023/08/05 00:00:09;;;;;;;;;8.00;6.50;;;;;;;;5097589;27;45363;-41
2023/08/05 00:02:34;;;;;;;;;5.75;5.00;;;;;;;;5098971;27;45239;-40
2023/08/05 00:05:00;;;;;;;;;8.25;8.25;;;;;;;;5099300;27;45365;-42
2023/08/05 00:07:26;;;;;;;;;7.00;6.00;;;;;;;;5098943;27;47295;-43
2023/08/05 00:09:51;;;;;;;;;6.00;4.25;;;;;;;;5099021;27;45189;-41
2023/08/05 00:12:16;;;;;;;;;5.00;5.00;;;;;;;;5098683;27;45489;-42
2023/08/05 00:14:41;;;;;;;;;7.00;7.00;;;;;;;;5099121;27;45503;-42
2023/08/05 00:17:07;;;;;;;;;6.50;6.00;;;;;;;;5098453;27;45933;-42
2023/08/05 00:19:32;;;;;;;;;6.00;6.00;;;;;;;;5098670;27;45339;-42
2023/08/05 00:21:57;;;;;;;;;5.75;5.75;;;;;;;;5098540;27;45544;-39
2023/08/05 00:24:22;;;;;;;;;5.00;5.00;;;;;;;;5098777;27;45375;-40
2023/08/05 00:26:47;;;;;;;;;5.00;5.00;;;;;;;;5098201;27;46451;-40
2023/08/05 00:29:13;;;;;;;;;10.00;5.00;;;;;;;;5098251;27;45335;-40
2023/08/05 00:31:38;;;;;;;;;6.75;4.75;;;;;;;;5098489;27;45395;-41
2023/08/05 00:34:03;;;;;;;;;9.25;6.75;;;;;;;;5098431;27;45458;-40
2023/08/05 00:36:28;;;;;;;;;6.25;6.00;;;;;;;;5098130;27;46025;-41
2023/08/05 00:38:53;;;;;;;;;6.25;6.00;;;;;;;;5098437;27;45460;-42
2023/08/05 00:41:18;;;;;;;;;8.00;6.50;;;;;;;;5098468;27;45345;-42
2023/08/05 00:43:44;;;;;;;;;7.00;6.50;;;;;;;;5098794;27;45404;-42
2023/08/05 00:46:10;;;;;;;;;5.00;4.50;;;;;;;;5098586;27;46163;-41
2023/08/05 00:48:36;;;;;;;;;8.50;6.00;;;;;;;;5098716;27;45450;-40
2023/08/05 00:51:01;;;;;;;;;6.50;6.00;;;;;;;;5098606;27;45322;-40
2023/08/05 00:53:27;;;;;;;;;5.75;4.00;;;;;;;;5098571;27;45402;-41
2023/08/05 00:55:53;;;;;;;;;10.00;6.00;;;;;;;;5098017;27;46022;-41
2023/08/05 00:58:21;;;;;;;;;6.75;3.50;;;;;;;;5097952;27;45208;-41
2023/08/05 01:00:47;;;;;;;;;4.50;4.25;;;;;;;;5098054;27;45374;-41
2023/08/05 01:03:12;;;;;;;;;6.00;6.00;;;;;;;;5098267;27;45519;-41
2023/08/05 01:05:37;;;;;;;;;6.00;6.00;;;;;;;;5097852;27;45311;-41
2023/08/05 01:08:03;;;;;;;;;7.25;5.00;;;;;;;;5097947;27;45444;-41
2023/08/05 01:10:28;;;;;;;;;5.50;5.50;;;;;;;;5097849;27;45451;-40
2023/08/05 01:12:54;;;;;;;;;4.50;4.25;;;;;;;;5098043;27;45349;-41
2023/08/05 01:15:19;;;;;;;;;6.75;6.75;;;;;;;;5097205;27;45313;-41
2023/08/05 01:17:44;;;;;;;;;6.75;6.00;;;;;;;;5097676;27;45274;-41
2023/08/05 01:20:10;;;;;;;;;6.25;4.00;;;;;;;;5097807;27;45365;-42
2023/08/05 01:22:35;;;;;;;;;6.75;5.25;;;;;;;;5097714;27;45412;-41
2023/08/05 01:25:19;;;;;;;;;5.75;4.00;;;;;;;;5097411;27;45412;-41
2023/08/05 01:27:44;;;;;;;;;5.75;5.75;;;;;;;;5097438;27;45484;-41
2023/08/05 01:30:10;;;;;;;;;8.25;7.00;;;;;;;;5097328;27;45399;-41
2023/08/05 01:32:36;;;;;;;;;7.50;4.25;;;;;;;;5097698;27;45251;-41
2023/08/05 01:35:01;;;;;;;;;7.50;6.50;;;;;;;;5097166;27;45321;-42
2023/08/05 01:37:26;;;;;;;;;5.75;5.75;;;;;;;;5097253;27;45385;-42
2023/08/05 01:39:52;;;;;;;;;7.75;6.00;;;;;;;;5097583;27;45362;-41
2023/08/05 01:42:17;;;;;;;;;7.00;7.00;;;;;;;;5097306;27;46045;-42
2023/08/05 01:44:42;;;;;;;;;6.50;6.50;;;;;;;;5096862;27;45315;-40
2023/08/05 01:47:07;;;;;;;;;6.50;6.50;;;;;;;;5097260;27;45232;-41
2023/08/05 01:49:32;;;;;;;;;6.75;6.00;;;;;;;;5097259;27;45272;-40
2023/08/05 01:51:58;;;;;;;;;6.50;5.00;;;;;;;;5097151;27;45213;-40
2023/08/05 01:54:23;;;;;;;;;6.75;5.25;;;;;;;;5096952;27;45919;-40
2023/08/05 01:56:48;;;;;;;;;4.00;4.00;;;;;;;;5096885;27;45373;-39
2023/08/05 01:59:13;;;;;;;;;6.75;5.00;;;;;;;;5097001;27;45330;-39
2023/08/05 02:01:41;;;;;;;;;5.25;5.25;;;;;;;;5097182;27;45414;-40
2023/08/05 02:04:06;;;;;;;;;5.25;5.25;;;;;;;;5096891;27;45243;-41
2023/08/05 02:06:31;;;;;;;;;3.50;3.25;;;;;;;;5096772;27;45254;-41
2023/08/05 02:08:57;;;;;;;;;9.00;4.50;;;;;;;;5097050;27;45217;-41
2023/08/05 02:11:22;;;;;;;;;6.00;5.00;;;;;;;;5097181;27;45533;-40
2023/08/05 02:13:47;;;;;;;;;5.00;5.00;;;;;;;;5096628;27;45394;-42
2023/08/05 02:16:12;;;;;;;;;4.25;4.25;;;;;;;;5096940;27;45362;-41
2023/08/05 02:18:37;;;;;;;;;7.25;5.00;;;;;;;;5096798;27;45408;-41
2023/08/05 02:21:03;;;;;;;;;5.00;5.00;;;;;;;;5096828;27;45402;-41
2023/08/05 02:23:28;;;;;;;;;9.75;5.75;;;;;;;;5097832;27;45418;-42
2023/08/05 02:25:53;;;;;;;;;6.00;5.75;;;;;;;;5100214;27;45320;-41
2023/08/05 02:28:18;;;;;;;;;9.00;5.00;;;;;;;;5099494;27;45426;-42
2023/08/05 02:30:43;;;;;;;;;4.75;4.75;;;;;;;;5100226;27;45298;-41
2023/08/05 02:33:09;;;;;;;;;5.00;4.50;;;;;;;;5099749;27;46069;-42
2023/08/05 02:35:34;;;;;;;;;7.25;4.00;;;;;;;;5099946;27;45413;-41
2023/08/05 02:37:59;;;;;;;;;4.75;4.75;;;;;;;;5099911;27;45403;-41
2023/08/05 02:40:24;;;;;;;;;3.50;3.50;;;;;;;;5100155;27;45451;-41
2023/08/05 02:42:49;;;;;;;;;4.75;4.00;;;;;;;;5099292;27;46111;-41
2023/08/05 02:45:15;;;;;;;;;8.25;4.25;;;;;;;;5099903;27;46001;-40
2023/08/05 02:47:40;;;;;;;;;8.25;4.25;;;;;;;;5099935;27;45464;-41
2023/08/05 02:50:08;;;;;;;;;3.50;3.50;;;;;;;;5100013;27;45288;-42
2023/08/05 02:52:34;;;;;;;;;5.25;5.25;;;;;;;;5099582;27;47395;-41
2023/08/05 02:54:59;;;;;;;;;6.75;3.50;;;;;;;;5099695;27;45179;-41
2023/08/05 02:57:24;;;;;;;;;8.00;5.25;;;;;;;;5099695;27;45291;-40
2023/08/05 02:59:49;;;;;;;;;3.25;3.25;;;;;;;;5099863;27;45626;-41
2023/08/05 03:02:14;;;;;;;;;6.00;6.00;;;;;;;;5080555;27;46224;-40
2023/08/05 03:04:40;;;;;;;;;6.00;4.75;;;;;;;;5099375;27;45323;-41
2023/08/05 03:07:05;;;;;;;;;5.50;3.50;;;;;;;;5099548;27;45190;-41
2023/08/05 03:09:30;;;;;;;;;4.25;4.00;;;;;;;;5099816;27;45321;-41
2023/08/05 03:11:55;;;;;;;;;6.75;6.50;;;;;;;;5099294;27;45388;-41
2023/08/05 03:14:21;;;;;;;;;8.25;4.50;;;;;;;;5099215;27;45408;-41
2023/08/05 03:16:46;;;;;;;;;6.00;4.25;;;;;;;;5099426;27;45404;-41
2023/08/05 03:19:11;;;;;;;;;9.67;6.00;;;;;;;;5099675;27;45344;-42
2023/08/05 03:21:36;;;;;;;;;11.25;5.75;;;;;;;;5099186;27;46581;-41
2023/08/05 03:24:01;;;;;;;;;4.25;4.00;;;;;;;;5099410;27;45421;-42
2023/08/05 03:26:27;;;;;;;;;4.75;4.00;;;;;;;;5099206;27;45302;-41
2023/08/05 03:28:52;;;;;;;;;4.00;4.00;;;;;;;;5099171;27;45455;-41
2023/08/05 03:31:17;;;;;;;;;5.00;5.00;;;;;;;;5099013;27;46205;-41
2023/08/05 03:33:42;;;;;;;;;4.25;4.25;;;;;;;;5099030;27;45547;-41
2023/08/05 03:36:07;;;;;;;;;5.25;4.25;;;;;;;;5097859;27;45361;-40
2023/08/05 03:38:33;;;;;;;;;5.00;3.50;;;;;;;;5099164;27;45770;-41
2023/08/05 03:41:04;;;;;;;;;6.50;5.25;;;;;;;;5098769;27;46097;-41
2023/08/05 03:43:29;;;;;;;;;5.50;4.50;;;;;;;;5098656;27;45516;-41
2023/08/05 03:45:54;;;;;;;;;5.00;4.75;;;;;;;;5099078;27;45462;-41
2023/08/05 03:48:19;;;;;;;;;5.00;4.50;;;;;;;;5098368;27;45416;-40
2023/08/05 03:50:45;;;;;;;;;4.75;3.00;;;;;;;;5098602;27;46939;-41
2023/08/05 03:53:10;;;;;;;;;3.50;3.50;;;;;;;;5098655;27;45153;-41
2023/08/05 03:55:35;;;;;;;;;2.00;2.00;;;;;;;;5098883;27;45172;-41
2023/08/05 03:58:00;;;;;;;;;6.00;4.25;;;;;;;;5099077;27;45262;-41
2023/08/05 04:00:26;;;;;;;;;6.25;4.50;;;;;;;;5098614;27;45955;-41
2023/08/05 04:02:51;;;;;;;;;5.75;4.00;;;;;;;;5098453;27;45200;-41
2023/08/05 04:05:16;;;;;;;;;3.25;3.25;;;;;;;;5098759;27;45343;-40
2023/08/05 04:07:41;;;;;;;;;4.25;3.75;;;;;;;;5098825;27;45434;-40
2023/08/05 04:10:07;;;;;;;;;8.00;4.00;;;;;;;;5098416;27;46137;-41
2023/08/05 04:12:35;;;;;;;;;5.50;5.50;;;;;;;;5098083;27;45413;-41
2023/08/05 04:15:02;;;;;;;;;6.50;4.25;;;;;;;;5098242;27;45370;-41
2023/08/05 04:17:27;;;;;;;;;4.75;3.00;;;;;;;;5098782;27;45251;-46
2023/08/05 04:19:53;;;;;;;;;5.00;4.25;;;;;;;;5097861;27;45419;-44
2023/08/05 04:22:20;;;;;;;;;5.00;5.00;;;;;;;;5098504;27;45253;-41
2023/08/05 04:24:45;;;;;;;;;4.75;4.75;;;;;;;;5098787;27;45231;-40
2023/08/05 04:27:11;;;;;;;;;4.00;4.00;;;;;;;;5098548;27;45210;-41
2023/08/05 04:29:36;;;;;;;;;3.00;3.00;;;;;;;;5098091;27;46398;-41
2023/08/05 04:32:01;;;;;;;;;5.50;3.00;;;;;;;;5098129;27;45163;-40
2023/08/05 04:34:29;;;;;;;;;5.00;4.00;;;;;;;;5097998;27;45333;-41
2023/08/05 04:36:54;;;;;;;;;3.75;3.75;;;;;;;;5098572;27;45445;-41
2023/08/05 04:39:19;;;;;;;;;8.25;5.75;;;;;;;;5098021;27;46196;-41
2023/08/05 04:41:45;;;;;;;;;4.00;4.00;;;;;;;;5098134;27;45505;-45
2023/08/05 04:44:10;;;;;;;;;6.00;3.75;;;;;;;;5097578;27;45316;-41
2023/08/05 04:46:36;;;;;;;;;4.75;4.75;;;;;;;;5097842;27;45431;-41
2023/08/05 04:49:01;;;;;;;;;4.75;3.00;;;;;;;;5097804;27;47131;-41
2023/08/05 04:51:26;;;;;;;;;3.00;3.00;;;;;;;;5097870;27;45306;-41
2023/08/05 04:53:51;;;;;;;;;4.00;4.00;;;;;;;;5097900;27;45425;-41
2023/08/05 04:56:22;;;;;;;;;3.25;3.00;;;;;;;;5098083;27;45343;-41
2023/08/05 04:58:48;;;;;;;;;3.00;2.75;;;;;;;;5097803;27;46451;-41
2023/08/05 05:01:13;;;;;;;;;5.00;5.00;;;;;;;;5097729;27;45322;-41
2023/08/05 05:03:38;;;;;;;;;6.00;3.00;;;;;;;;5097770;27;45344;-42
2023/08/05 05:06:03;;;;;;;;;3.00;3.00;;;;;;;;5097988;27;45322;-41
2023/08/05 05:08:31;;;;;;;;;6.75;4.25;;;;;;;;5097515;27;45338;-41
2023/08/05 05:10:56;;;;;;;;;7.50;3.00;;;;;;;;5079245;27;45413;-42
2023/08/05 05:13:21;;;;;;;;;3.50;3.25;;;;;;;;5097884;27;45366;-41
2023/08/05 05:15:48;;;;;;;;;10.00;5.25;;;;;;;;5097038;27;45348;-42
2023/08/05 05:18:13;;;;;;;;;3.00;3.00;;;;;;;;5097581;27;47101;-41
2023/08/05 05:20:38;;;;;;;;;3.50;3.00;;;;;;;;5097367;27;45223;-42
2023/08/05 05:23:03;;;;;;;;;3.75;3.75;;;;;;;;5079163;27;45404;-42
2023/08/05 05:25:29;;;;;;;;;4.50;3.00;;;;;;;;5097878;27;45183;-42
2023/08/05 05:27:54;;;;;;;;;4.75;4.75;;;;;;;;5096342;27;46255;-42
2023/08/05 05:30:19;;;;;;;;;3.75;3.75;;;;;;;;5097318;27;45303;-42
2023/08/05 05:32:44;;;;;;;;;7.00;5.00;;;;;;;;5097314;27;45520;-41
2023/08/05 05:35:09;;;;;;;;;3.50;3.50;;;;;;;;5097423;27;45451;-42
2023/08/05 05:37:35;;;;;;;;;10.00;6.00;;;;;;;;5097226;27;45349;-42
2023/08/05 05:40:00;;;;;;;;;3.00;3.00;;;;;;;;5097262;27;45295;-42
2023/08/05 05:42:25;;;;;;;;;5.00;4.00;;;;;;;;5097290;27;45375;-41
2023/08/05 05:44:52;;;;;;;;;7.67;6.00;;;;;;;;5097516;27;45329;-42
2023/08/05 05:47:18;;;;;;;;;10.00;7.33;;;;;;;;5097256;27;47072;-41
2023/08/05 05:49:43;;;;;;;;;8.00;8.00;;;;;;;;5097237;27;45378;-43
2023/08/05 05:52:11;;;;;;;;;9.50;4.25;;;;;;;;5097384;27;45329;-41
2023/08/05 05:54:36;;;;;;;;;6.67;5.00;;;;;;;;5097591;27;45402;-42
2023/08/05 05:57:01;;;;;;;;;7.00;7.00;;;;;;;;5096192;27;45332;-41
2023/08/05 05:59:26;;;;;;;;;8.00;5.00;;;;;;;;5099578;27;45461;-41
2023/08/05 06:01:52;;;;;;;;;5.50;3.75;;;;;;;;5100991;27;45276;-42
2023/08/05 06:04:18;;;;;;;;;5.00;5.00;;;;;;;;5082462;27;45545;-42
2023/08/05 06:06:43;;;;;;;;;6.00;6.00;;;;;;;;5100487;27;46989;-42
2023/08/05 06:09:08;;;;;;;;;8.25;4.00;;;;;;;;5099668;27;45262;-40
2023/08/05 06:11:34;;;;;;;;;8.00;6.00;;;;;;;;5100076;27;45428;-42
2023/08/05 06:13:59;;;;;;;;;8.67;8.67;;;;;;;;5082441;27;45278;-41
2023/08/05 06:16:24;;;;;;;;;7.50;4.75;;;;;;;;5100361;27;45462;-41
2023/08/05 06:18:50;;;;;;;;;10.00;5.00;;;;;;;;5100719;27;45284;-40
2023/08/05 06:21:15;;;;;;;;;9.75;5.50;;;;;;;;5100679;27;45157;-40
2023/08/05 06:23:40;;;;;;;;;8.00;5.50;;;;;;;;5100743;27;45219;-41
2023/08/05 06:26:05;;;;;;;;;9.00;5.75;;;;;;;;5100448;27;45870;-41
2023/08/05 06:28:30;;;;;;;;;5.00;5.00;;;;;;;;5100352;27;45367;-41
2023/08/05 06:30:56;;;;;;;;;4.50;4.50;;;;;;;;5100149;27;45417;-40
2023/08/05 06:33:21;;;;;;;;;5.75;4.50;;;;;;;;5100321;27;45365;-41
2023/08/05 06:35:46;;;;;;;;;5.25;4.25;;;;;;;;5081642;27;45399;-42
2023/08/05 06:38:12;;;;;;;;;9.25;7.75;;;;;;;;5100088;27;45322;-42
2023/08/05 06:40:40;;;;;;;;;6.25;5.75;;;;;;;;5100340;27;45473;-41
2023/08/05 06:43:05;;;;;;;;;5.50;4.25;;;;;;;;5100422;27;45472;-41
2023/08/05 06:45:31;;;;;;;;;4.75;4.75;;;;;;;;5099726;27;45506;-41
2023/08/05 06:47:56;;;;;;;;;3.00;3.00;;;;;;;;5100080;27;45381;-40
2023/08/05 06:50:21;;;;;;;;;3.75;3.75;;;;;;;;5099988;27;45379;-42
2023/08/05 06:52:46;;;;;;;;;7.75;4.00;;;;;;;;5100136;27;45357;-41
2023/08/05 06:55:15;;;;;;;;;7.00;5.00;;;;;;;;5100014;27;45600;-41
2023/08/05 06:57:40;;;;;;;;;7.25;4.75;;;;;;;;5099797;27;45392;-40
2023/08/05 07:00:05;;;;;;;;;4.50;2.50;;;;;;;;5081381;27;45466;-41
2023/08/05 07:02:31;;;;;;;;;4.50;4.50;;;;;;;;5081729;27;45651;-41
2023/08/05 07:04:56;;;;;;;;;5.25;4.75;;;;;;;;5099572;27;46116;-41
2023/08/05 07:07:21;;;;;;;;;4.75;3.50;;;;;;;;5099919;27;45428;-41
2023/08/05 07:09:46;;;;;;;;;5.25;5.00;;;;;;;;5099625;27;45526;-41
2023/08/05 07:12:11;;;;;;;;;5.00;5.00;;;;;;;;5081583;27;45476;-41
2023/08/05 07:14:38;;;;;;;;;5.50;2.75;;;;;;;;5099477;27;46110;-41
2023/08/05 07:17:03;;;;;;;;;4.25;4.25;;;;;;;;5099428;27;45403;-42
2023/08/05 07:19:28;;;;;;;;;8.00;4.50;;;;;;;;5099721;27;45683;-41
2023/08/05 07:21:54;;;;;;;;;3.75;2.75;;;;;;;;5099189;27;45381;-41
2023/08/05 07:24:20;;;;;;;;;3.00;3.00;;;;;;;;5080992;27;46042;-41
2023/08/05 07:26:45;;;;;;;;;3.60;3.60;;;;;;;;5099345;27;45262;-41
2023/08/05 07:29:10;;;;;;;;;2.00;2.00;;;;;;;;5099507;27;45352;-41
2023/08/05 07:31:36;;;;;;;;;5.00;3.75;;;;;;;;5099507;27;45387;-41
2023/08/05 07:34:02;;;;;;;;;2.00;2.00;;;;;;;;5098955;27;46895;-42
2023/08/05 07:36:28;;;;;;;;;1.00;1.00;;;;;;;;5099508;27;45505;-40
2023/08/05 07:38:54;;;;;;;;;1.80;1.80;;;;;;;;5099322;27;45274;-42
2023/08/05 07:41:25;;;;;;;;;1.00;1.00;;;;;;;;5081181;27;45324;-42
2023/08/05 07:43:51;;;;;;;;;1.00;1.00;;;;;;;;5098949;27;46352;-42
2023/08/05 07:46:18;;;;;;;;;2.50;2.50;;;;;;;;5098276;27;45318;-40
2023/08/05 07:48:46;;;;;;;;;2.00;2.00;;;;;;;;5099164;27;45500;-42
2023/08/05 07:51:12;;;;;;;;;4.00;2.60;;;;;;;;5099284;27;45360;-42
2023/08/05 07:53:38;;;;;;;;;1.25;1.25;;;;;;;;5099064;27;46468;-42
2023/08/05 07:56:12;;;;;;;;;1.00;1.00;;;;;;;;5099040;27;45440;-42
2023/08/05 07:58:42;;;;;;;;;4.00;2.40;;;;;;;;5098786;27;45362;-42
2023/08/05 08:01:08;;;;;;;;;2.40;2.40;;;;;;;;5098843;27;45331;-42
2023/08/05 08:03:33;;;;;;;;;2.75;2.00;;;;;;;;5098732;27;45373;-42
2023/08/05 08:05:59;;;;;;;;;3.00;1.75;;;;;;;;5098667;27;45240;-42
2023/08/05 08:08:24;;;;;;;;;1.75;1.75;;;;;;;;5098813;27;45305;-41
2023/08/05 08:10:49;;;;;;;;;2.00;2.00;;;;;;;;5098838;27;45945;-42
2023/08/05 08:13:14;;;;;;;;;1.50;1.50;;;;;;;;5098310;27;47075;-41
2023/08/05 08:15:40;;;;;;;;;2.00;2.00;;;;;;;;5098809;27;45320;-42
2023/08/05 08:18:05;;;;;;;;;2.50;2.00;;;;;;;;5099159;27;45283;-42
2023/08/05 08:20:30;;;;;;;;;3.00;1.00;;;;;;;;5098260;27;45332;-42
2023/08/05 08:22:55;;;;;;;;;2.75;2.00;;;;;;;;5098407;27;46036;-41
2023/08/05 08:25:20;;;;;;;;;4.25;2.75;;;;;;;;5098553;27;45203;-42
2023/08/05 08:27:45;;;;;;;;;2.00;2.00;;;;;;;;5098559;27;45279;-42
2023/08/05 08:30:12;;;;;;;;;3.00;2.50;;;;;;;;5098727;27;45286;-41
2023/08/05 08:32:37;;;;;;;;;1.80;1.00;;;;;;;;5098088;27;47132;-42
2023/08/05 08:35:02;;;;;;;;;3.50;2.25;;;;;;;;5098342;27;45410;-41
2023/08/05 08:37:28;;;;;;;;;3.00;2.50;;;;;;;;5098366;27;45439;-41
2023/08/05 08:39:53;;;;;;;;;1.75;1.75;;;;;;;;5098838;27;45378;-42
2023/08/05 08:42:20;;;;;;;;;3.00;2.00;;;;;;;;5098225;27;45607;-40
2023/08/05 08:44:46;;;;;;;;;2.00;2.00;;;;;;;;5098280;27;45381;-42
2023/08/05 08:47:11;;;;;;;;;4.00;2.50;;;;;;;;5098367;27;45407;-41
2023/08/05 08:49:37;;;;;;;;;2.00;2.00;;;;;;;;5098328;27;45454;-41
2023/08/05 08:52:03;;;;;;;;;1.25;1.25;;;;;;;;5098024;27;46140;-41
2023/08/05 08:54:29;;;;;;;;;2.80;1.00;;;;;;;;5098045;27;45432;-41
2023/08/05 08:56:54;;;;;;;;;3.00;1.25;;;;;;;;5098058;27;45347;-41
2023/08/05 08:59:19;;;;;;;;;2.00;1.00;;;;;;;;5098433;27;45344;-41
2023/08/05 09:01:45;;;;;;;;;2.75;2.75;;;;;;;;5097899;27;45940;-42
2023/08/05 09:04:11;;;;;;;;;5.00;3.00;;;;;;;;5098260;27;45323;-41
2023/08/05 09:06:38;;;;;;;;;2.00;2.00;;;;;;;;5098018;27;45381;-42
2023/08/05 09:09:03;;;;;;;;;1.00;1.00;;;;;;;;5098155;27;45403;-42
2023/08/05 09:11:28;;;;;;;;;3.00;1.50;;;;;;;;5097952;27;45402;-41
2023/08/05 09:13:54;;;;;;;;;2.00;1.00;;;;;;;;5097850;27;45437;-41
2023/08/05 09:16:19;;;;;;;;;3.50;3.50;;;;;;;;5097943;27;45333;-40
2023/08/05 09:18:54;;;;;;;;;3.00;1.25;;;;;;;;5098063;27;45365;-41
2023/08/05 09:21:23;;;;;;;;;4.00;1.00;;;;;;;;5097627;27;46172;-41
2023/08/05 09:23:48;;;;;;;;;2.80;2.00;;;;;;;;5097528;27;45339;-42
2023/08/05 09:26:13;;;;;;;;;2.50;1.25;;;;;;;;5097895;27;45322;-40
2023/08/05 09:28:39;;;;;;;;;2.00;2.00;;;;;;;;5097958;27;45395;-42
2023/08/05 09:31:14;;;;;;;;;1.00;1.00;;;;;;;;5096843;27;45327;-42
2023/08/05 09:33:40;;;;;;;;;2.00;2.00;;;;;;;;5098745;27;45323;-42
2023/08/05 09:36:10;;;;;;;;;4.00;2.00;;;;;;;;5101291;27;45176;-41
2023/08/05 09:38:36;;;;;;;;;4.00;2.00;;;;;;;;5101602;27;45330;-42
2023/08/05 09:41:01;;;;;;;;;3.75;2.00;;;;;;;;5100936;27;46143;-42
2023/08/05 09:43:33;;;;;;;;;1.00;1.00;;;;;;;;5101356;27;45412;-42
2023/08/05 09:46:02;;;;;;;;;1.80;1.60;;;;;;;;5101135;27;45362;-42
2023/08/05 09:48:29;;;;;;;;;6.00;2.00;;;;;;;;5101354;27;45275;-42
2023/08/05 09:50:58;;;;;;;;;4.00;1.40;;;;;;;;5100852;27;46181;-42
2023/08/05 09:53:29;;;;;;;;;2.80;2.80;;;;;;;;5100680;27;45398;-42
2023/08/05 09:55:54;;;;;;;;;2.20;2.00;;;;;;;;5101097;27;45331;-42
2023/08/05 09:58:20;;;;;;;;;2.00;2.00;;;;;;;;5101316;27;45306;-41
2023/08/05 10:00:49;;;;;;;;;5.00;2.00;;;;;;;;5100650;27;45311;-40
2023/08/05 10:03:14;;;;;;;;;2.20;2.20;;;;;;;;5100760;27;45319;-41
2023/08/05 10:05:43;;;;;;;;;2.75;2.75;;;;;;;;5101135;27;45305;-41
2023/08/05 10:08:09;;;;;;;;;1.25;1.25;;;;;;;;5101089;27;45477;-42
2023/08/05 10:10:35;;;;;;;;;3.25;1.50;;;;;;;;5100562;27;46450;-41
2023/08/05 10:13:09;;;;;;;;;2.00;2.00;;;;;;;;5100691;27;45433;-41
2023/08/05 10:15:40;;;;;;;;;1.80;1.00;;;;;;;;5100648;27;45427;-43
2023/08/05 10:18:14;;;;;;;;;2.00;2.00;;;;;;;;5100765;27;45421;-41
2023/08/05 10:20:39;;;;;;;;;1.80;0.00;;;;;;;;5100525;27;47026;-42
2023/08/05 10:23:05;;;;;;;;;3.75;3.75;;;;;;;;5100585;27;45420;-41
2023/08/05 10:25:37;;;;;;;;;6.50;5.00;;;;;;;;5100506;27;45826;-41
2023/08/05 10:28:03;;;;;;;;;2.25;2.00;;;;;;;;5100846;27;45470;-42
2023/08/05 10:30:28;;;;;;;;;5.00;3.25;;;;;;;;5099298;27;46398;-41
2023/08/05 10:32:53;;;;;;;;;3.00;2.00;;;;;;;;5100400;27;45281;-40
2023/08/05 10:35:27;;;;;;;;;4.50;2.50;;;;;;;;5100331;27;45398;-41
2023/08/05 10:38:06;;;;;;;;;6.25;4.00;;;;;;;;5100594;27;45455;-40
2023/08/05 10:40:37;;;;;;;;;4.00;2.00;;;;;;;;5100102;27;46450;-42
2023/08/05 10:43:02;;;;;;;;;3.80;3.20;;;;;;;;5099693;27;45223;-42
2023/08/05 10:45:27;;;;;;;;;4.00;3.00;;;;;;;;5099748;27;45286;-41
2023/08/05 10:47:53;;;;;;;;;5.25;4.00;;;;;;;;5100458;27;45173;-41
2023/08/05 10:50:18;;;;;;;;;5.00;4.50;;;;;;;;5099932;27;47170;-42
2023/08/05 10:52:44;;;;;;;;;3.75;3.00;;;;;;;;5100106;27;45746;-41
2023/08/05 10:55:10;;;;;;;;;4.00;3.75;;;;;;;;5100316;27;45354;-40
2023/08/05 10:57:38;;;;;;;;;4.50;4.00;;;;;;;;5100255;27;45380;-41
2023/08/05 11:00:06;;;;;;;;;4.00;4.00;;;;;;;;5099925;27;46269;-40
2023/08/05 11:02:31;;;;;;;;;4.20;3.00;;;;;;;;5099806;27;45504;-40
2023/08/05 11:05:06;;;;;;;;;1.00;1.00;;;;;;;;5099850;27;45232;-40
2023/08/05 11:07:34;;;;;;;;;7.75;3.25;;;;;;;;5100099;27;45415;-40
2023/08/05 11:10:00;;;;;;;;;3.25;3.25;;;;;;;;5099675;27;46209;-41
2023/08/05 11:12:26;;;;;;;;;7.00;4.25;;;;;;;;5099461;27;45387;-41
2023/08/05 11:14:52;;;;;;;;;3.40;3.40;;;;;;;;5099927;27;45315;-41
2023/08/05 11:17:17;;;;;;;;;5.00;3.75;;;;;;;;5099876;27;45351;-42
2023/08/05 11:19:55;;;;;;;;;4.00;4.00;;;;;;;;5099490;27;47294;-42
2023/08/05 11:22:25;;;;;;;;;4.00;4.00;;;;;;;;5099669;27;45506;-41
2023/08/05 11:25:00;;;;;;;;;6.80;5.00;;;;;;;;5099773;27;45304;-42
2023/08/05 11:27:29;;;;;;;;;6.25;4.00;;;;;;;;5099807;27;45392;-42
2023/08/05 11:29:54;;;;;;;;;3.60;3.60;;;;;;;;5099349;27;45923;-39
2023/08/05 11:32:19;;;;;;;;;6.75;3.75;;;;;;;;5099438;27;45455;-41
2023/08/05 11:34:45;;;;;;;;;4.25;3.50;;;;;;;;5098766;27;45481;-42
2023/08/05 11:37:10;;;;;;;;;6.00;2.75;;;;;;;;5099170;27;45279;-41
2023/08/05 11:39:35;;;;;;;;;3.25;2.25;;;;;;;;5099136;27;46135;-41
2023/08/05 11:42:01;;;;;;;;;4.25;4.25;;;;;;;;5099188;27;45199;-40
2023/08/05 11:44:26;;;;;;;;;7.25;5.00;;;;;;;;5099349;27;45425;-41
2023/08/05 11:46:51;;;;;;;;;3.75;3.75;;;;;;;;5099408;27;45296;-41
2023/08/05 11:49:17;;;;;;;;;3.00;3.00;;;;;;;;5099114;27;46062;-41
2023/08/05 11:51:49;;;;;;;;;4.50;2.75;;;;;;;;5099054;27;45297;-41
2023/08/05 11:54:32;;;;;;;;;3.60;3.60;;;;;;;;5099021;27;45264;-41
2023/08/05 11:56:58;;;;;;;;;5.00;3.00;;;;;;;;5098250;27;45276;-40
2023/08/05 11:59:42;;;;;;;;;4.50;3.50;;;;;;;;5098743;27;46904;-41
2023/08/05 12:02:07;;;;;;;;;4.20;2.60;;;;;;;;5098786;27;45437;-40
2023/08/05 12:04:40;;;;;;;;;5.25;3.50;;;;;;;;5098408;27;45324;-41
2023/08/05 12:07:05;;;;;;;;;5.25;3.75;;;;;;;;5099082;27;45333;-41
2023/08/05 12:09:30;;;;;;;;;5.75;4.00;;;;;;;;5097979;27;45408;-41
2023/08/05 12:11:56;;;;;;;;;5.50;4.00;;;;;;;;5098664;27;45319;-40
2023/08/05 12:14:21;;;;;;;;;5.60;3.00;;;;;;;;5098944;27;45284;-39
2023/08/05 12:16:47;;;;;;;;;1.00;1.00;;;;;;;;5098758;27;45268;-40
2023/08/05 12:19:14;;;;;;;;;3.00;3.00;;;;;;;;5097776;27;46311;-40
2023/08/05 12:21:39;;;;;;;;;4.60;3.40;;;;;;;;5098471;27;45302;-41
2023/08/05 12:24:04;;;;;;;;;5.50;3.50;;;;;;;;5098774;27;45455;-40
2023/08/05 12:26:29;;;;;;;;;3.00;3.00;;;;;;;;5099050;27;45174;-40
2023/08/05 12:28:55;;;;;;;;;4.00;4.00;;;;;;;;5079939;27;47384;-40
2023/08/05 12:31:20;;;;;;;;;5.50;4.25;;;;;;;;5098468;27;45264;-41
2023/08/05 12:33:45;;;;;;;;;6.75;5.50;;;;;;;;5098267;27;45465;-39
2023/08/05 12:36:10;;;;;;;;;7.00;4.00;;;;;;;;5098911;27;45352;-42
2023/08/05 12:38:36;;;;;;;;;1.00;1.00;;;;;;;;5098511;27;45252;-41
2023/08/05 12:41:01;;;;;;;;;6.50;4.25;;;;;;;;5098543;27;45815;-41
2023/08/05 12:43:26;;;;;;;;;7.50;5.00;;;;;;;;5097725;27;45336;-41
2023/08/05 12:45:51;;;;;;;;;6.00;5.25;;;;;;;;5098599;27;45232;-41
2023/08/05 12:48:17;;;;;;;;;4.00;3.25;;;;;;;;5079448;27;45379;-40
2023/08/05 12:50:42;;;;;;;;;4.75;4.00;;;;;;;;5098329;27;45453;-42
2023/08/05 12:53:07;;;;;;;;;4.50;4.50;;;;;;;;5098055;27;45296;-41
2023/08/05 12:55:32;;;;;;;;;6.75;4.75;;;;;;;;5098686;27;45333;-42
2023/08/05 12:57:58;;;;;;;;;6.00;3.00;;;;;;;;5098103;27;46004;-41
2023/08/05 13:00:23;;;;;;;;;6.00;5.75;;;;;;;;5098185;27;45231;-40
2023/08/05 13:02:48;;;;;;;;;5.00;5.00;;;;;;;;5098107;27;45279;-40
2023/08/05 13:05:13;;;;;;;;;5.75;4.50;;;;;;;;5098487;27;45240;-41
2023/08/05 13:07:39;;;;;;;;;5.00;5.00;;;;;;;;5096817;27;46303;-41
2023/08/05 13:10:04;;;;;;;;;5.00;4.00;;;;;;;;5097971;27;45277;-44
2023/08/05 13:12:29;;;;;;;;;6.50;5.75;;;;;;;;5098009;27;45555;-40
2023/08/05 13:14:54;;;;;;;;;7.75;5.75;;;;;;;;5097257;27;45269;-41
2023/08/05 13:17:19;;;;;;;;;7.75;6.75;;;;;;;;5097570;27;46302;-40
2023/08/05 13:19:45;;;;;;;;;5.75;3.75;;;;;;;;5097925;27;45421;-41
2023/08/05 13:22:10;;;;;;;;;7.25;6.00;;;;;;;;5097967;27;45365;-41
2023/08/05 13:24:35;;;;;;;;;5.25;4.75;;;;;;;;5098243;27;45590;-41
2023/08/05 13:27:01;;;;;;;;;4.25;3.75;;;;;;;;5097564;27;46155;-42
2023/08/05 13:29:26;;;;;;;;;3.75;3.75;;;;;;;;5097676;27;45323;-41
2023/08/05 13:31:51;;;;;;;;;2.75;2.25;;;;;;;;5097532;27;45443;-42
2023/08/05 13:34:16;;;;;;;;;2.50;2.00;;;;;;;;5087934;27;45426;-43
2023/08/05 13:36:42;;;;;;;;;1.75;0.75;;;;;;;;5077117;28;46157;-41
2023/08/05 13:39:07;;;;;;;;;3.75;1.25;;;;;;;;5077179;27;45332;-41
2023/08/05 13:41:32;;;;;;;;;2.00;1.00;;;;;;;;5077468;28;45388;-41
2023/08/05 13:43:57;;;;;;;;;1.50;1.50;;;;;;;;5075463;28;45538;-40
2023/08/05 13:46:22;;;;;;;;;2.25;1.00;;;;;;;;5077062;28;45592;-39
2023/08/05 13:48:48;;;;;;;;;0.00;0.00;;;;;;;;5077066;28;45577;-40
2023/08/05 13:51:13;;;;;;;;;2.50;1.00;;;;;;;;5076137;28;45307;-41
2023/08/05 13:53:38;;;;;;;;;0.00;0.00;;;;;;;;5077142;28;45327;-40
2023/08/05 13:56:03;;;;;;;;;1.00;1.00;;;;;;;;5076902;28;46348;-41
2023/08/05 13:58:29;;;;;;;;;1.00;1.00;;;;;;;;5076864;28;45279;-41
2023/08/05 14:00:55;;;;;;;;;1.00;1.00;;;;;;;;5076983;28;45300;-41
2023/08/05 14:03:21;;;;;;;;;1.00;1.00;;;;;;;;5076938;28;45375;-40
2023/08/05 14:05:46;;;;;;;;;1.00;1.00;;;;;;;;5076657;28;47172;-41
2023/08/05 14:08:12;;;;;;;;;2.50;1.00;;;;;;;;5076580;28;45300;-40
2023/08/05 14:10:37;;;;;;;;;2.00;0.75;;;;;;;;5076594;27;45299;-41
2023/08/05 14:13:02;;;;;;;;;1.50;1.50;;;;;;;;5077009;28;45301;-41
2023/08/05 14:15:28;;;;;;;;;1.25;1.25;;;;;;;;5076477;28;47433;-41
2023/08/05 14:17:53;;;;;;;;;0.00;0.00;;;;;;;;5076189;27;45454;-41
2023/08/05 14:20:19;;;;;;;;;1.00;1.00;;;;;;;;5078933;27;45299;-42
2023/08/05 14:22:44;;;;;;;;;0.50;0.50;;;;;;;;5080227;27;45507;-41
2023/08/05 14:25:10;;;;;;;;;0.75;0.75;;;;;;;;5079890;27;47114;-41
2023/08/05 14:27:35;;;;;;;;;1.00;1.00;;;;;;;;5078931;27;45253;-41
2023/08/05 14:30:00;;;;;;;;;1.75;1.75;;;;;;;;5079984;27;45313;-41
2023/08/05 14:32:25;;;;;;;;;1.00;0.00;;;;;;;;5079940;27;45389;-41
2023/08/05 14:34:52;;;;;;;;;1.00;1.00;;;;;;;;5075964;27;47385;-41